Aviation Digital Data Service (ADDS)

Output produced by METARs form (1917 UTC 19 April 2019)
found at http://www.aviationweather.gov/metar/data/
 
METAR text: LETL 191900Z AUTO 07010KT 040V100 CAVOK 10/04 Q1020
Conditions at: LETL (TERUEL , ES) observed 1900 UTC 19 April 2019
Temperature: 10.0°C (50°F)
Dewpoint: 4.0°C (39°F) [RH = 66%]
Pressure (altimeter): 30.12 inches Hg (1020.0 mb)
Winds: from the ENE (70 degrees) at 12 MPH (10 knots; 5.1 m/s)
Visibility: 6 or more miles (10+ km)
Ceiling: ceiling and visibility are OK
Clouds: unknown
Weather: no significant weather observed at this time

METAR text: LETL 191830Z AUTO 08014KT CAVOK 10/04 Q1020
Conditions at: LETL (TERUEL , ES) observed 1830 UTC 19 April 2019
Temperature: 10.0°C (50°F)
Dewpoint: 4.0°C (39°F) [RH = 66%]
Pressure (altimeter): 30.12 inches Hg (1020.0 mb)
Winds: from the E (80 degrees) at 16 MPH (14 knots; 7.2 m/s)
Visibility: 6 or more miles (10+ km)
Ceiling: ceiling and visibility are OK
Clouds: unknown
Weather: no significant weather observed at this time

METAR text: LETL 191800Z AUTO 07019KT 9999 SCT048 10/04 Q1019
Conditions at: LETL (TERUEL , ES) observed 1800 UTC 19 April 2019
Temperature: 10.0°C (50°F)
Dewpoint: 4.0°C (39°F) [RH = 66%]
Pressure (altimeter): 30.09 inches Hg (1019.0 mb)
Winds: from the ENE (70 degrees) at 22 MPH (19 knots; 9.8 m/s)
Visibility: 6 or more miles (10+ km)
Ceiling: at least 12,000 feet AGL
Clouds: scattered clouds at 4800 feet AGL
Weather: no significant weather observed at this time

METAR text: LETL 191730Z AUTO 07019KT 040V110 9999 FEW043 10/05 Q1018
Conditions at: LETL (TERUEL , ES) observed 1730 UTC 19 April 2019
Temperature: 10.0°C (50°F)
Dewpoint: 5.0°C (41°F) [RH = 71%]
Pressure (altimeter): 30.06 inches Hg (1018.0 mb)
Winds: from the ENE (70 degrees) at 22 MPH (19 knots; 9.8 m/s)
Visibility: 6 or more miles (10+ km)
Ceiling: at least 12,000 feet AGL
Clouds: few clouds at 4300 feet AGL
Weather: no significant weather observed at this time

METAR text: LETL 191700Z AUTO 15006KT 120V180 9999 SCT041 SCT048 10/07 Q1019
Conditions at: LETL (TERUEL , ES) observed 1700 UTC 19 April 2019
Temperature: 10.0°C (50°F)
Dewpoint: 7.0°C (45°F) [RH = 82%]
Pressure (altimeter): 30.09 inches Hg (1019.0 mb)
Winds: from the SSE (150 degrees) at 7 MPH (6 knots; 3.1 m/s)
Visibility: 6 or more miles (10+ km)
Ceiling: at least 12,000 feet AGL
Clouds: scattered clouds at 4100 feet AGL
scattered clouds at 4800 feet AGL
Weather: no significant weather observed at this time

METAR text: LETL 191630Z AUTO 12005KT 8000 FEW036 SCT046 09/08 Q1019
Conditions at: LETL (TERUEL , ES) observed 1630 UTC 19 April 2019
Temperature: 9.0°C (48°F)
Dewpoint: 8.0°C (46°F) [RH = 93%]
Pressure (altimeter): 30.09 inches Hg (1019.0 mb)
Winds: from the ESE (120 degrees) at 6 MPH (5 knots; 2.6 m/s)
Visibility: 5 miles ( 8 km)
Ceiling: at least 12,000 feet AGL
Clouds: few clouds at 3600 feet AGL
scattered clouds at 4600 feet AGL
Weather: no significant weather observed at this time

METAR text: LETL 191600Z AUTO 15010KT 6000 BKN030 OVC039 09/08 Q1018
Conditions at: LETL (TERUEL , ES) observed 1600 UTC 19 April 2019
Temperature: 9.0°C (48°F)
Dewpoint: 8.0°C (46°F) [RH = 93%]
Pressure (altimeter): 30.06 inches Hg (1018.0 mb)
Winds: from the SSE (150 degrees) at 12 MPH (10 knots; 5.1 m/s)
Visibility: 4 miles ( 6 km)
Ceiling: 3000 feet AGL
Clouds: broken clouds at 3000 feet AGL
overcast cloud deck at 3900 feet AGL
Weather: no significant weather observed at this time

METAR text: LETL 191530Z AUTO 16010KT 7000 BKN030 BKN036 09/08 Q1018
Conditions at: LETL (TERUEL , ES) observed 1530 UTC 19 April 2019
Temperature: 9.0°C (48°F)
Dewpoint: 8.0°C (46°F) [RH = 93%]
Pressure (altimeter): 30.06 inches Hg (1018.0 mb)
Winds: from the SSE (160 degrees) at 12 MPH (10 knots; 5.1 m/s)
Visibility: 4 miles ( 7 km)
Ceiling: 3000 feet AGL
Clouds: broken clouds at 3000 feet AGL
broken clouds at 3600 feet AGL
Weather: no significant weather observed at this time

METAR text: LETL 191500Z AUTO 14012KT 9999 SCT019 BKN027 BKN032 10/07 Q1017
Conditions at: LETL (TERUEL , ES) observed 1500 UTC 19 April 2019
Temperature: 10.0°C (50°F)
Dewpoint: 7.0°C (45°F) [RH = 82%]
Pressure (altimeter): 30.03 inches Hg (1017.0 mb)
Winds: from the SE (140 degrees) at 14 MPH (12 knots; 6.2 m/s)
Visibility: 6 or more miles (10+ km)
Ceiling: 2700 feet AGL
Clouds: scattered clouds at 1900 feet AGL
broken clouds at 2700 feet AGL
broken clouds at 3200 feet AGL
Weather: no significant weather observed at this time

METAR text: LETL 191430Z AUTO 14010KT 9999 FEW016 BKN022 BKN028 10/08 Q1017
Conditions at: LETL (TERUEL , ES) observed 1430 UTC 19 April 2019
Temperature: 10.0°C (50°F)
Dewpoint: 8.0°C (46°F) [RH = 87%]
Pressure (altimeter): 30.03 inches Hg (1017.0 mb)
Winds: from the SE (140 degrees) at 12 MPH (10 knots; 5.1 m/s)
Visibility: 6 or more miles (10+ km)
Ceiling: 2200 feet AGL
Clouds: few clouds at 1600 feet AGL
broken clouds at 2200 feet AGL
broken clouds at 2800 feet AGL
Weather: no significant weather observed at this time

METAR text: LETL 191400Z AUTO VRB10KT 9999 BKN022 BKN027 OVC032 10/08 Q1017
Conditions at: LETL (TERUEL , ES) observed 1400 UTC 19 April 2019
Temperature: 10.0°C (50°F)
Dewpoint: 8.0°C (46°F) [RH = 87%]
Pressure (altimeter): 30.03 inches Hg (1017.0 mb)
Winds: variable direction winds at 12 MPH (10 knots; 5.1 m/s)
Visibility: 6 or more miles (10+ km)
Ceiling: 2200 feet AGL
Clouds: broken clouds at 2200 feet AGL
broken clouds at 2700 feet AGL
overcast cloud deck at 3200 feet AGL
Weather: no significant weather observed at this time

METAR text: LETL 191330Z AUTO 08012KT 050V120 9999 FEW015 BKN020 OVC025 10/08 Q1017
Conditions at: LETL (TERUEL , ES) observed 1330 UTC 19 April 2019
Temperature: 10.0°C (50°F)
Dewpoint: 8.0°C (46°F) [RH = 87%]
Pressure (altimeter): 30.03 inches Hg (1017.0 mb)
Winds: from the E (80 degrees) at 14 MPH (12 knots; 6.2 m/s)
Visibility: 6 or more miles (10+ km)
Ceiling: 2000 feet AGL
Clouds: few clouds at 1500 feet AGL
broken clouds at 2000 feet AGL
overcast cloud deck at 2500 feet AGL
Weather: no significant weather observed at this time

METAR text: LETL 191300Z AUTO 11009KT 070V140 9999 SCT016 BKN025 OVC033 10/08 Q1017
Conditions at: LETL (TERUEL , ES) observed 1300 UTC 19 April 2019
Temperature: 10.0°C (50°F)
Dewpoint: 8.0°C (46°F) [RH = 87%]
Pressure (altimeter): 30.03 inches Hg (1017.0 mb)
Winds: from the ESE (110 degrees) at 10 MPH (9 knots; 4.6 m/s)
Visibility: 6 or more miles (10+ km)
Ceiling: 2500 feet AGL
Clouds: scattered clouds at 1600 feet AGL
broken clouds at 2500 feet AGL
overcast cloud deck at 3300 feet AGL
Weather: no significant weather observed at this time

METAR text: LETL 191230Z AUTO 15014KT 9999 SCT034 11/09 Q1017
Conditions at: LETL (TERUEL , ES) observed 1230 UTC 19 April 2019
Temperature: 11.0°C (52°F)
Dewpoint: 9.0°C (48°F) [RH = 87%]
Pressure (altimeter): 30.03 inches Hg (1017.0 mb)
Winds: from the SSE (150 degrees) at 16 MPH (14 knots; 7.2 m/s)
Visibility: 6 or more miles (10+ km)
Ceiling: at least 12,000 feet AGL
Clouds: scattered clouds at 3400 feet AGL
Weather: no significant weather observed at this time

METAR text: LETL 191200Z AUTO 14017KT 9999 SCT014 SCT031 11/10 Q1017
Conditions at: LETL (TERUEL , ES) observed 1200 UTC 19 April 2019
Temperature: 11.0°C (52°F)
Dewpoint: 10.0°C (50°F) [RH = 94%]
Pressure (altimeter): 30.03 inches Hg (1017.0 mb)
Winds: from the SE (140 degrees) at 20 MPH (17 knots; 8.7 m/s)
Visibility: 6 or more miles (10+ km)
Ceiling: at least 12,000 feet AGL
Clouds: scattered clouds at 1400 feet AGL
scattered clouds at 3100 feet AGL
Weather: no significant weather observed at this time

METAR text: LETL 191130Z AUTO 20001KT 9999 BKN013 09/09 Q1016
Conditions at: LETL (TERUEL , ES) observed 1130 UTC 19 April 2019
Temperature: 9.0°C (48°F)
Dewpoint: 9.0°C (48°F) [RH = 100%]
Pressure (altimeter): 30.00 inches Hg (1016.0 mb)
Winds: from the SSW (200 degrees) at 1 MPH (1 knots; 0.5 m/s)
Visibility: 6 or more miles (10+ km)
Ceiling: 1300 feet AGL
Clouds: broken clouds at 1300 feet AGL
Weather: no significant weather observed at this time

METAR text: LETL 191100Z AUTO 25005KT 210V300 9999 OVC013 09/08 Q1016
Conditions at: LETL (TERUEL , ES) observed 1100 UTC 19 April 2019
Temperature: 9.0°C (48°F)
Dewpoint: 8.0°C (46°F) [RH = 93%]
Pressure (altimeter): 30.00 inches Hg (1016.0 mb)
Winds: from the WSW (250 degrees) at 6 MPH (5 knots; 2.6 m/s)
Visibility: 6 or more miles (10+ km)
Ceiling: 1300 feet AGL
Clouds: overcast cloud deck at 1300 feet AGL
Weather: no significant weather observed at this time

METAR text: LETL 191030Z AUTO 31005KT 260V040 9999 OVC017 08/08 Q1016
Conditions at: LETL (TERUEL , ES) observed 1030 UTC 19 April 2019
Temperature: 8.0°C (46°F)
Dewpoint: 8.0°C (46°F) [RH = 100%]
Pressure (altimeter): 30.00 inches Hg (1016.0 mb)
Winds: from the NW (310 degrees) at 6 MPH (5 knots; 2.6 m/s)
Visibility: 6 or more miles (10+ km)
Ceiling: 1700 feet AGL
Clouds: overcast cloud deck at 1700 feet AGL
Weather: no significant weather observed at this time

METAR text: LETL 191000Z AUTO 33011KT 9999 FEW004 OVC019 07/07 Q1016
Conditions at: LETL (TERUEL , ES) observed 1000 UTC 19 April 2019
Temperature: 7.0°C (45°F)
Dewpoint: 7.0°C (45°F) [RH = 100%]
Pressure (altimeter): 30.00 inches Hg (1016.0 mb)
Winds: from the NNW (330 degrees) at 13 MPH (11 knots; 5.7 m/s)
Visibility: 6 or more miles (10+ km)
Ceiling: 1900 feet AGL
Clouds: few clouds at 400 feet AGL
overcast cloud deck at 1900 feet AGL
Weather: no significant weather observed at this time

METAR text: LETL 190930Z AUTO 33009KT 9999 BKN004 OVC021 07/07 Q1017
Conditions at: LETL (TERUEL , ES) observed 0930 UTC 19 April 2019
Temperature: 7.0°C (45°F)
Dewpoint: 7.0°C (45°F) [RH = 100%]
Pressure (altimeter): 30.03 inches Hg (1017.0 mb)
Winds: from the NNW (330 degrees) at 10 MPH (9 knots; 4.6 m/s)
Visibility: 6 or more miles (10+ km)
Ceiling: 400 feet AGL
Clouds: broken clouds at 400 feet AGL
overcast cloud deck at 2100 feet AGL
Weather: no significant weather observed at this time

METAR text: LETL 190900Z AUTO 33009KT 6000 SCT003 OVC022 07/07 Q1017
Conditions at: LETL (TERUEL , ES) observed 0900 UTC 19 April 2019
Temperature: 7.0°C (45°F)
Dewpoint: 7.0°C (45°F) [RH = 100%]
Pressure (altimeter): 30.03 inches Hg (1017.0 mb)
Winds: from the NNW (330 degrees) at 10 MPH (9 knots; 4.6 m/s)
Visibility: 4 miles ( 6 km)
Ceiling: 2200 feet AGL
Clouds: scattered clouds at 300 feet AGL
overcast cloud deck at 2200 feet AGL
Weather: no significant weather observed at this time

METAR text: LETL 190830Z AUTO 34008KT 6000 FEW003 BKN023 OVC029 07/07 Q1017
Conditions at: LETL (TERUEL , ES) observed 0830 UTC 19 April 2019
Temperature: 7.0°C (45°F)
Dewpoint: 7.0°C (45°F) [RH = 100%]
Pressure (altimeter): 30.03 inches Hg (1017.0 mb)
Winds: from the NNW (340 degrees) at 9 MPH (8 knots; 4.1 m/s)
Visibility: 4 miles ( 6 km)
Ceiling: 2300 feet AGL
Clouds: few clouds at 300 feet AGL
broken clouds at 2300 feet AGL
overcast cloud deck at 2900 feet AGL
Weather: no significant weather observed at this time

METAR text: LETL 190800Z AUTO 33006KT 4000 BR OVC024 07/07 Q1017
Conditions at: LETL (TERUEL , ES) observed 0800 UTC 19 April 2019
Temperature: 7.0°C (45°F)
Dewpoint: 7.0°C (45°F) [RH = 100%]
Pressure (altimeter): 30.03 inches Hg (1017.0 mb)
Winds: from the NNW (330 degrees) at 7 MPH (6 knots; 3.1 m/s)
Visibility: 2.49 miles (4.01 km)
Ceiling: 2400 feet AGL
Clouds: overcast cloud deck at 2400 feet AGL
Weather: BR  (mist)

METAR text: LETL 190730Z AUTO 33006KT 7000 OVC027 07/07 Q1016
Conditions at: LETL (TERUEL , ES) observed 0730 UTC 19 April 2019
Temperature: 7.0°C (45°F)
Dewpoint: 7.0°C (45°F) [RH = 100%]
Pressure (altimeter): 30.00 inches Hg (1016.0 mb)
Winds: from the NNW (330 degrees) at 7 MPH (6 knots; 3.1 m/s)
Visibility: 4 miles ( 7 km)
Ceiling: 2700 feet AGL
Clouds: overcast cloud deck at 2700 feet AGL
Weather: no significant weather observed at this time

METAR text: LETL 190700Z AUTO 35006KT 4400 BR BKN030 OVC040 07/07 Q1016
Conditions at: LETL (TERUEL , ES) observed 0700 UTC 19 April 2019
Temperature: 7.0°C (45°F)
Dewpoint: 7.0°C (45°F) [RH = 100%]
Pressure (altimeter): 30.00 inches Hg (1016.0 mb)
Winds: from the N (350 degrees) at 7 MPH (6 knots; 3.1 m/s)
Visibility: 2.73 miles (4.39 km)
Ceiling: 3000 feet AGL
Clouds: broken clouds at 3000 feet AGL
overcast cloud deck at 4000 feet AGL
Weather: BR  (mist)

METAR text: LETL 190630Z AUTO 32003KT 3000 BR BKN034 07/07 Q1016
Conditions at: LETL (TERUEL , ES) observed 0630 UTC 19 April 2019
Temperature: 7.0°C (45°F)
Dewpoint: 7.0°C (45°F) [RH = 100%]
Pressure (altimeter): 30.00 inches Hg (1016.0 mb)
Winds: from the NW (320 degrees) at 3 MPH (3 knots; 1.5 m/s)
Visibility: 1.86 miles (2.99 km)
Ceiling: 3400 feet AGL
Clouds: broken clouds at 3400 feet AGL
Weather: BR  (mist)

METAR text: LETL 190600Z AUTO VRB02KT 3600 BR BKN037 BKN046 07/07 Q1016
Conditions at: LETL (TERUEL , ES) observed 0600 UTC 19 April 2019
Temperature: 7.0°C (45°F)
Dewpoint: 7.0°C (45°F) [RH = 100%]
Pressure (altimeter): 30.00 inches Hg (1016.0 mb)
Winds: variable direction winds at 2 MPH (2 knots; 1.0 m/s)
Visibility: 2.24 miles (3.60 km)
Ceiling: 3700 feet AGL
Clouds: broken clouds at 3700 feet AGL
broken clouds at 4600 feet AGL
Weather: BR  (mist)

METAR text: LETL 190530Z AUTO 00000KT 4300 BR FEW035 BKN048 07/07 Q1015
Conditions at: LETL (TERUEL , ES) observed 0530 UTC 19 April 2019
Temperature: 7.0°C (45°F)
Dewpoint: 7.0°C (45°F) [RH = 100%]
Pressure (altimeter): 29.97 inches Hg (1015.0 mb)
Winds: calm
Visibility: 2.67 miles (4.30 km)
Ceiling: 4800 feet AGL
Clouds: few clouds at 3500 feet AGL
broken clouds at 4800 feet AGL
Weather: BR  (mist)

METAR text: LETL 190500Z AUTO 13002KT 4000 BR OVC048 07/07 Q1015
Conditions at: LETL (TERUEL , ES) observed 0500 UTC 19 April 2019
Temperature: 7.0°C (45°F)
Dewpoint: 7.0°C (45°F) [RH = 100%]
Pressure (altimeter): 29.97 inches Hg (1015.0 mb)
Winds: from the SE (130 degrees) at 2 MPH (2 knots; 1.0 m/s)
Visibility: 2.49 miles (4.01 km)
Ceiling: 4800 feet AGL
Clouds: overcast cloud deck at 4800 feet AGL
Weather: BR  (mist)

METAR text: LETL 190430Z AUTO 15003KT 110V210 3000 BR FEW037 OVC044 07/07 Q1015
Conditions at: LETL (TERUEL , ES) observed 0430 UTC 19 April 2019
Temperature: 7.0°C (45°F)
Dewpoint: 7.0°C (45°F) [RH = 100%]
Pressure (altimeter): 29.97 inches Hg (1015.0 mb)
Winds: from the SSE (150 degrees) at 3 MPH (3 knots; 1.5 m/s)
Visibility: 1.86 miles (2.99 km)
Ceiling: 4400 feet AGL
Clouds: few clouds at 3700 feet AGL
overcast cloud deck at 4400 feet AGL
Weather: BR  (mist)

METAR text: LETL 190400Z AUTO VRB01KT 2800 BR OVC040 06/06 Q1015
Conditions at: LETL (TERUEL , ES) observed 0400 UTC 19 April 2019
Temperature: 6.0°C (43°F)
Dewpoint: 6.0°C (43°F) [RH = 100%]
Pressure (altimeter): 29.97 inches Hg (1015.0 mb)
Winds: variable direction winds at 1 MPH (1 knots; 0.5 m/s)
Visibility: 1.74 miles (2.80 km)
Ceiling: 4000 feet AGL
Clouds: overcast cloud deck at 4000 feet AGL
Weather: BR  (mist)

METAR text: LETL 190330Z AUTO VRB02KT 5000 BR BKN009 BKN045 06/06 Q1015
Conditions at: LETL (TERUEL , ES) observed 0330 UTC 19 April 2019
Temperature: 6.0°C (43°F)
Dewpoint: 6.0°C (43°F) [RH = 100%]
Pressure (altimeter): 29.97 inches Hg (1015.0 mb)
Winds: variable direction winds at 2 MPH (2 knots; 1.0 m/s)
Visibility: 3 miles ( 5 km)
Ceiling: 900 feet AGL
Clouds: broken clouds at 900 feet AGL
broken clouds at 4500 feet AGL
Weather: BR  (mist)

METAR text: LETL 190300Z AUTO 26008KT 6000 OVC008 06/06 Q1015
Conditions at: LETL (TERUEL , ES) observed 0300 UTC 19 April 2019
Temperature: 6.0°C (43°F)
Dewpoint: 6.0°C (43°F) [RH = 100%]
Pressure (altimeter): 29.97 inches Hg (1015.0 mb)
Winds: from the W (260 degrees) at 9 MPH (8 knots; 4.1 m/s)
Visibility: 4 miles ( 6 km)
Ceiling: 800 feet AGL
Clouds: overcast cloud deck at 800 feet AGL
Weather: no significant weather observed at this time

METAR text: LETL 190230Z AUTO 30004KT 260V330 4200 BR OVC008 06/06 Q1015
Conditions at: LETL (TERUEL , ES) observed 0230 UTC 19 April 2019
Temperature: 6.0°C (43°F)
Dewpoint: 6.0°C (43°F) [RH = 100%]
Pressure (altimeter): 29.97 inches Hg (1015.0 mb)
Winds: from the WNW (300 degrees) at 5 MPH (4 knots; 2.1 m/s)
Visibility: 2.61 miles (4.20 km)
Ceiling: 800 feet AGL
Clouds: overcast cloud deck at 800 feet AGL
Weather: BR  (mist)

METAR text: LETL 190200Z AUTO 36005KT 3900 BR OVC012 06/06 Q1015
Conditions at: LETL (TERUEL , ES) observed 0200 UTC 19 April 2019
Temperature: 6.0°C (43°F)
Dewpoint: 6.0°C (43°F) [RH = 100%]
Pressure (altimeter): 29.97 inches Hg (1015.0 mb)
Winds: from the N (360 degrees) at 6 MPH (5 knots; 2.6 m/s)
Visibility: 2.42 miles (3.89 km)
Ceiling: 1200 feet AGL
Clouds: overcast cloud deck at 1200 feet AGL
Weather: BR  (mist)

METAR text: LETL 190130Z AUTO 34004KT 6000 BKN013 OVC018 06/05 Q1014
Conditions at: LETL (TERUEL , ES) observed 0130 UTC 19 April 2019
Temperature: 6.0°C (43°F)
Dewpoint: 5.0°C (41°F) [RH = 93%]
Pressure (altimeter): 29.94 inches Hg (1014.0 mb)
Winds: from the NNW (340 degrees) at 5 MPH (4 knots; 2.1 m/s)
Visibility: 4 miles ( 6 km)
Ceiling: 1300 feet AGL
Clouds: broken clouds at 1300 feet AGL
overcast cloud deck at 1800 feet AGL
Weather: no significant weather observed at this time

METAR text: LETL 190100Z AUTO 32006KT 290V350 4300 BR OVC015 OVC021 06/05 Q1015
Conditions at: LETL (TERUEL , ES) observed 0100 UTC 19 April 2019
Temperature: 6.0°C (43°F)
Dewpoint: 5.0°C (41°F) [RH = 93%]
Pressure (altimeter): 29.97 inches Hg (1015.0 mb)
Winds: from the NW (320 degrees) at 7 MPH (6 knots; 3.1 m/s)
Visibility: 2.67 miles (4.30 km)
Ceiling: 1500 feet AGL
Clouds: overcast cloud deck at 1500 feet AGL
overcast cloud deck at 2100 feet AGL
Weather: BR  (mist)

METAR text: LETL 190030Z AUTO 29010KT 9000 OVC015 05/05 Q1014
Conditions at: LETL (TERUEL , ES) observed 0030 UTC 19 April 2019
Temperature: 5.0°C (41°F)
Dewpoint: 5.0°C (41°F) [RH = 100%]
Pressure (altimeter): 29.94 inches Hg (1014.0 mb)
Winds: from the WNW (290 degrees) at 12 MPH (10 knots; 5.1 m/s)
Visibility: 6 miles ( 9 km)
Ceiling: 1500 feet AGL
Clouds: overcast cloud deck at 1500 feet AGL
Weather: no significant weather observed at this time

METAR text: LETL 190000Z AUTO 28009KT 9999 BKN015 OVC020 06/05 Q1014
Conditions at: LETL (TERUEL , ES) observed 0000 UTC 19 April 2019
Temperature: 6.0°C (43°F)
Dewpoint: 5.0°C (41°F) [RH = 93%]
Pressure (altimeter): 29.94 inches Hg (1014.0 mb)
Winds: from the W (280 degrees) at 10 MPH (9 knots; 4.6 m/s)
Visibility: 6 or more miles (10+ km)
Ceiling: 1500 feet AGL
Clouds: broken clouds at 1500 feet AGL
overcast cloud deck at 2000 feet AGL
Weather: no significant weather observed at this time

METAR text: LETL 182330Z AUTO 27010KT 5000 BR BKN015 OVC021 06/05 Q1014
Conditions at: LETL (TERUEL , ES) observed 2330 UTC 18 April 2019
Temperature: 6.0°C (43°F)
Dewpoint: 5.0°C (41°F) [RH = 93%]
Pressure (altimeter): 29.94 inches Hg (1014.0 mb)
Winds: from the W (270 degrees) at 12 MPH (10 knots; 5.1 m/s)
Visibility: 3 miles ( 5 km)
Ceiling: 1500 feet AGL
Clouds: broken clouds at 1500 feet AGL
overcast cloud deck at 2100 feet AGL
Weather: BR  (mist)

METAR text: LETL 182300Z AUTO 22006KT 190V250 9999 FEW016 BKN021 BKN033 07/06 Q1014
Conditions at: LETL (TERUEL , ES) observed 2300 UTC 18 April 2019
Temperature: 7.0°C (45°F)
Dewpoint: 6.0°C (43°F) [RH = 93%]
Pressure (altimeter): 29.94 inches Hg (1014.0 mb)
Winds: from the SW (220 degrees) at 7 MPH (6 knots; 3.1 m/s)
Visibility: 6 or more miles (10+ km)
Ceiling: 2100 feet AGL
Clouds: few clouds at 1600 feet AGL
broken clouds at 2100 feet AGL
broken clouds at 3300 feet AGL
Weather: no significant weather observed at this time

METAR text: LETL 182230Z AUTO 06009KT 030V110 9999 SCT025 BKN033 BKN043 07/06 Q1014
Conditions at: LETL (TERUEL , ES) observed 2230 UTC 18 April 2019
Temperature: 7.0°C (45°F)
Dewpoint: 6.0°C (43°F) [RH = 93%]
Pressure (altimeter): 29.94 inches Hg (1014.0 mb)
Winds: from the ENE (60 degrees) at 10 MPH (9 knots; 4.6 m/s)
Visibility: 6 or more miles (10+ km)
Ceiling: 3300 feet AGL
Clouds: scattered clouds at 2500 feet AGL
broken clouds at 3300 feet AGL
broken clouds at 4300 feet AGL
Weather: no significant weather observed at this time

METAR text: LETL 182200Z AUTO 01007KT 9000 FEW026 SCT034 BKN046 06/05 Q1014
Conditions at: LETL (TERUEL , ES) observed 2200 UTC 18 April 2019
Temperature: 6.0°C (43°F)
Dewpoint: 5.0°C (41°F) [RH = 93%]
Pressure (altimeter): 29.94 inches Hg (1014.0 mb)
Winds: from the N (10 degrees) at 8 MPH (7 knots; 3.6 m/s)
Visibility: 6 miles ( 9 km)
Ceiling: 4600 feet AGL
Clouds: few clouds at 2600 feet AGL
scattered clouds at 3400 feet AGL
broken clouds at 4600 feet AGL
Weather: no significant weather observed at this time

METAR text: LETL 182130Z AUTO 02005KT 360V060 9999 FEW024 BKN030 BKN049 06/05 Q1015
Conditions at: LETL (TERUEL , ES) observed 2130 UTC 18 April 2019
Temperature: 6.0°C (43°F)
Dewpoint: 5.0°C (41°F) [RH = 93%]
Pressure (altimeter): 29.97 inches Hg (1015.0 mb)
Winds: from the NNE (20 degrees) at 6 MPH (5 knots; 2.6 m/s)
Visibility: 6 or more miles (10+ km)
Ceiling: 3000 feet AGL
Clouds: few clouds at 2400 feet AGL
broken clouds at 3000 feet AGL
broken clouds at 4900 feet AGL
Weather: no significant weather observed at this time

METAR text: LETL 182100Z AUTO 07005KT 4200 BR BKN027 BKN033 06/05 Q1015
Conditions at: LETL (TERUEL , ES) observed 2100 UTC 18 April 2019
Temperature: 6.0°C (43°F)
Dewpoint: 5.0°C (41°F) [RH = 93%]
Pressure (altimeter): 29.97 inches Hg (1015.0 mb)
Winds: from the ENE (70 degrees) at 6 MPH (5 knots; 2.6 m/s)
Visibility: 2.61 miles (4.20 km)
Ceiling: 2700 feet AGL
Clouds: broken clouds at 2700 feet AGL
broken clouds at 3300 feet AGL
Weather: BR  (mist)

METAR text: LETL 182030Z AUTO 02004KT 7000 FEW032 BKN049 06/05 Q1015
Conditions at: LETL (TERUEL , ES) observed 2030 UTC 18 April 2019
Temperature: 6.0°C (43°F)
Dewpoint: 5.0°C (41°F) [RH = 93%]
Pressure (altimeter): 29.97 inches Hg (1015.0 mb)
Winds: from the NNE (20 degrees) at 5 MPH (4 knots; 2.1 m/s)
Visibility: 4 miles ( 7 km)
Ceiling: 4900 feet AGL
Clouds: few clouds at 3200 feet AGL
broken clouds at 4900 feet AGL
Weather: no significant weather observed at this time

METAR text: LETL 182000Z AUTO 05004KT 5000 BR SCT037 BKN044 06/05 Q1014
Conditions at: LETL (TERUEL , ES) observed 2000 UTC 18 April 2019
Temperature: 6.0°C (43°F)
Dewpoint: 5.0°C (41°F) [RH = 93%]
Pressure (altimeter): 29.94 inches Hg (1014.0 mb)
Winds: from the NE (50 degrees) at 5 MPH (4 knots; 2.1 m/s)
Visibility: 3 miles ( 5 km)
Ceiling: 4400 feet AGL
Clouds: scattered clouds at 3700 feet AGL
broken clouds at 4400 feet AGL
Weather: BR  (mist)

METAR text: LETL 181930Z AUTO VRB02KT 2700 BR FEW026 BKN036 BKN043 06/05 Q1014
Conditions at: LETL (TERUEL , ES) observed 1930 UTC 18 April 2019
Temperature: 6.0°C (43°F)
Dewpoint: 5.0°C (41°F) [RH = 93%]
Pressure (altimeter): 29.94 inches Hg (1014.0 mb)
Winds: variable direction winds at 2 MPH (2 knots; 1.0 m/s)
Visibility: 1.68 miles (2.70 km)
Ceiling: 3600 feet AGL
Clouds: few clouds at 2600 feet AGL
broken clouds at 3600 feet AGL
broken clouds at 4300 feet AGL
Weather: BR  (mist)

METAR text: LETL 181900Z AUTO VRB02KT 3300 BR BKN036 BKN043 06/05 Q1014
Conditions at: LETL (TERUEL , ES) observed 1900 UTC 18 April 2019
Temperature: 6.0°C (43°F)
Dewpoint: 5.0°C (41°F) [RH = 93%]
Pressure (altimeter): 29.94 inches Hg (1014.0 mb)
Winds: variable direction winds at 2 MPH (2 knots; 1.0 m/s)
Visibility: 2.05 miles (3.30 km)
Ceiling: 3600 feet AGL
Clouds: broken clouds at 3600 feet AGL
broken clouds at 4300 feet AGL
Weather: BR  (mist)

METAR text: LETL 181830Z AUTO 20006KT 150V230 8000 BKN035 OVC042 06/05 Q1013
Conditions at: LETL (TERUEL , ES) observed 1830 UTC 18 April 2019
Temperature: 6.0°C (43°F)
Dewpoint: 5.0°C (41°F) [RH = 93%]
Pressure (altimeter): 29.91 inches Hg (1013.0 mb)
Winds: from the SSW (200 degrees) at 7 MPH (6 knots; 3.1 m/s)
Visibility: 5 miles ( 8 km)
Ceiling: 3500 feet AGL
Clouds: broken clouds at 3500 feet AGL
overcast cloud deck at 4200 feet AGL
Weather: no significant weather observed at this time

METAR text: LETL 181800Z AUTO 24009KT 200V270 2400 BR SCT036 BKN044 07/06 Q1013
Conditions at: LETL (TERUEL , ES) observed 1800 UTC 18 April 2019
Temperature: 7.0°C (45°F)
Dewpoint: 6.0°C (43°F) [RH = 93%]
Pressure (altimeter): 29.91 inches Hg (1013.0 mb)
Winds: from the WSW (240 degrees) at 10 MPH (9 knots; 4.6 m/s)
Visibility: 1.49 miles (2.40 km)
Ceiling: 4400 feet AGL
Clouds: scattered clouds at 3600 feet AGL
broken clouds at 4400 feet AGL
Weather: BR  (mist)

METAR text: LETL 181730Z AUTO 21013KT 170V240 3000 BR SCT011 BKN021 BKN040 08/07 Q1012
Conditions at: LETL (TERUEL , ES) observed 1730 UTC 18 April 2019
Temperature: 8.0°C (46°F)
Dewpoint: 7.0°C (45°F) [RH = 93%]
Pressure (altimeter): 29.88 inches Hg (1012.0 mb)
Winds: from the SSW (210 degrees) at 15 MPH (13 knots; 6.7 m/s)
Visibility: 1.86 miles (2.99 km)
Ceiling: 2100 feet AGL
Clouds: scattered clouds at 1100 feet AGL
broken clouds at 2100 feet AGL
broken clouds at 4000 feet AGL
Weather: BR  (mist)

METAR text: LETL 181700Z AUTO 15009KT 120V190 9999 OVC012 09/07 Q1011
Conditions at: LETL (TERUEL , ES) observed 1700 UTC 18 April 2019
Temperature: 9.0°C (48°F)
Dewpoint: 7.0°C (45°F) [RH = 87%]
Pressure (altimeter): 29.85 inches Hg (1011.0 mb)
Winds: from the SSE (150 degrees) at 10 MPH (9 knots; 4.6 m/s)
Visibility: 6 or more miles (10+ km)
Ceiling: 1200 feet AGL
Clouds: overcast cloud deck at 1200 feet AGL
Weather: no significant weather observed at this time

METAR text: LETL 181630Z AUTO 15013KT 9999 BKN016 OVC022 09/06 Q1011
Conditions at: LETL (TERUEL , ES) observed 1630 UTC 18 April 2019
Temperature: 9.0°C (48°F)
Dewpoint: 6.0°C (43°F) [RH = 81%]
Pressure (altimeter): 29.85 inches Hg (1011.0 mb)
Winds: from the SSE (150 degrees) at 15 MPH (13 knots; 6.7 m/s)
Visibility: 6 or more miles (10+ km)
Ceiling: 1600 feet AGL
Clouds: broken clouds at 1600 feet AGL
overcast cloud deck at 2200 feet AGL
Weather: no significant weather observed at this time

METAR text: LETL 181600Z AUTO 13013KT 9999 SCT019 BKN026 10/06 Q1011
Conditions at: LETL (TERUEL , ES) observed 1600 UTC 18 April 2019
Temperature: 10.0°C (50°F)
Dewpoint: 6.0°C (43°F) [RH = 76%]
Pressure (altimeter): 29.85 inches Hg (1011.0 mb)
Winds: from the SE (130 degrees) at 15 MPH (13 knots; 6.7 m/s)
Visibility: 6 or more miles (10+ km)
Ceiling: 2600 feet AGL
Clouds: scattered clouds at 1900 feet AGL
broken clouds at 2600 feet AGL
Weather: no significant weather observed at this time

METAR text: LETL 181530Z AUTO 13015KT 9999 OVC021 10/06 Q1011
Conditions at: LETL (TERUEL , ES) observed 1530 UTC 18 April 2019
Temperature: 10.0°C (50°F)
Dewpoint: 6.0°C (43°F) [RH = 76%]
Pressure (altimeter): 29.85 inches Hg (1011.0 mb)
Winds: from the SE (130 degrees) at 17 MPH (15 knots; 7.7 m/s)
Visibility: 6 or more miles (10+ km)
Ceiling: 2100 feet AGL
Clouds: overcast cloud deck at 2100 feet AGL
Weather: no significant weather observed at this time

METAR text: LETL 181500Z AUTO 14014KT 9999 OVC021 10/06 Q1011
Conditions at: LETL (TERUEL , ES) observed 1500 UTC 18 April 2019
Temperature: 10.0°C (50°F)
Dewpoint: 6.0°C (43°F) [RH = 76%]
Pressure (altimeter): 29.85 inches Hg (1011.0 mb)
Winds: from the SE (140 degrees) at 16 MPH (14 knots; 7.2 m/s)
Visibility: 6 or more miles (10+ km)
Ceiling: 2100 feet AGL
Clouds: overcast cloud deck at 2100 feet AGL
Weather: no significant weather observed at this time

METAR text: LETL 181430Z AUTO 14014KT 9999 BKN020 OVC025 10/06 Q1012
Conditions at: LETL (TERUEL , ES) observed 1430 UTC 18 April 2019
Temperature: 10.0°C (50°F)
Dewpoint: 6.0°C (43°F) [RH = 76%]
Pressure (altimeter): 29.88 inches Hg (1012.0 mb)
Winds: from the SE (140 degrees) at 16 MPH (14 knots; 7.2 m/s)
Visibility: 6 or more miles (10+ km)
Ceiling: 2000 feet AGL
Clouds: broken clouds at 2000 feet AGL
overcast cloud deck at 2500 feet AGL
Weather: no significant weather observed at this time

METAR text: LETL 181400Z AUTO 15019KT 9999 BKN023 11/06 Q1012
Conditions at: LETL (TERUEL , ES) observed 1400 UTC 18 April 2019
Temperature: 11.0°C (52°F)
Dewpoint: 6.0°C (43°F) [RH = 71%]
Pressure (altimeter): 29.88 inches Hg (1012.0 mb)
Winds: from the SSE (150 degrees) at 22 MPH (19 knots; 9.8 m/s)
Visibility: 6 or more miles (10+ km)
Ceiling: 2300 feet AGL
Clouds: broken clouds at 2300 feet AGL
Weather: no significant weather observed at this time

METAR text: LETL 181330Z AUTO 16015KT 140V200 9999 BKN024 10/05 Q1012
Conditions at: LETL (TERUEL , ES) observed 1330 UTC 18 April 2019
Temperature: 10.0°C (50°F)
Dewpoint: 5.0°C (41°F) [RH = 71%]
Pressure (altimeter): 29.88 inches Hg (1012.0 mb)
Winds: from the SSE (160 degrees) at 17 MPH (15 knots; 7.7 m/s)
Visibility: 6 or more miles (10+ km)
Ceiling: 2400 feet AGL
Clouds: broken clouds at 2400 feet AGL
Weather: no significant weather observed at this time

METAR text: LETL 181300Z AUTO 15011KT 9999 BKN025 OVC030 11/05 Q1013
Conditions at: LETL (TERUEL , ES) observed 1300 UTC 18 April 2019
Temperature: 11.0°C (52°F)
Dewpoint: 5.0°C (41°F) [RH = 66%]
Pressure (altimeter): 29.91 inches Hg (1013.0 mb)
Winds: from the SSE (150 degrees) at 13 MPH (11 knots; 5.7 m/s)
Visibility: 6 or more miles (10+ km)
Ceiling: 2500 feet AGL
Clouds: broken clouds at 2500 feet AGL
overcast cloud deck at 3000 feet AGL
Weather: no significant weather observed at this time

METAR text: LETL 181230Z AUTO 15012KT 9999 BKN032 11/05 Q1013
Conditions at: LETL (TERUEL , ES) observed 1230 UTC 18 April 2019
Temperature: 11.0°C (52°F)
Dewpoint: 5.0°C (41°F) [RH = 66%]
Pressure (altimeter): 29.91 inches Hg (1013.0 mb)
Winds: from the SSE (150 degrees) at 14 MPH (12 knots; 6.2 m/s)
Visibility: 6 or more miles (10+ km)
Ceiling: 3200 feet AGL
Clouds: broken clouds at 3200 feet AGL
Weather: no significant weather observed at this time

METAR text: LETL 181200Z AUTO 14008KT 9999 BKN033 11/05 Q1012
Conditions at: LETL (TERUEL , ES) observed 1200 UTC 18 April 2019
Temperature: 11.0°C (52°F)
Dewpoint: 5.0°C (41°F) [RH = 66%]
Pressure (altimeter): 29.88 inches Hg (1012.0 mb)
Winds: from the SE (140 degrees) at 9 MPH (8 knots; 4.1 m/s)
Visibility: 6 or more miles (10+ km)
Ceiling: 3300 feet AGL
Clouds: broken clouds at 3300 feet AGL
Weather: no significant weather observed at this time

METAR text: LETL 181130Z AUTO 16009KT 9999 OVC033 11/05 Q1013
Conditions at: LETL (TERUEL , ES) observed 1130 UTC 18 April 2019
Temperature: 11.0°C (52°F)
Dewpoint: 5.0°C (41°F) [RH = 66%]
Pressure (altimeter): 29.91 inches Hg (1013.0 mb)
Winds: from the SSE (160 degrees) at 10 MPH (9 knots; 4.6 m/s)
Visibility: 6 or more miles (10+ km)
Ceiling: 3300 feet AGL
Clouds: overcast cloud deck at 3300 feet AGL
Weather: no significant weather observed at this time

METAR text: LETL 181100Z AUTO 16010KT 120V190 9999 OVC038 11/04 Q1013
Conditions at: LETL (TERUEL , ES) observed 1100 UTC 18 April 2019
Temperature: 11.0°C (52°F)
Dewpoint: 4.0°C (39°F) [RH = 62%]
Pressure (altimeter): 29.91 inches Hg (1013.0 mb)
Winds: from the SSE (160 degrees) at 12 MPH (10 knots; 5.1 m/s)
Visibility: 6 or more miles (10+ km)
Ceiling: 3800 feet AGL
Clouds: overcast cloud deck at 3800 feet AGL
Weather: no significant weather observed at this time

METAR text: LETL 181030Z AUTO 15011KT 9999 BKN044 11/04 Q1014
Conditions at: LETL (TERUEL , ES) observed 1030 UTC 18 April 2019
Temperature: 11.0°C (52°F)
Dewpoint: 4.0°C (39°F) [RH = 62%]
Pressure (altimeter): 29.94 inches Hg (1014.0 mb)
Winds: from the SSE (150 degrees) at 13 MPH (11 knots; 5.7 m/s)
Visibility: 6 or more miles (10+ km)
Ceiling: 4400 feet AGL
Clouds: broken clouds at 4400 feet AGL
Weather: no significant weather observed at this time

METAR text: LETL 181000Z AUTO 16009KT 130V190 9999 BKN049 12/04 Q1014
Conditions at: LETL (TERUEL , ES) observed 1000 UTC 18 April 2019
Temperature: 12.0°C (54°F)
Dewpoint: 4.0°C (39°F) [RH = 58%]
Pressure (altimeter): 29.94 inches Hg (1014.0 mb)
Winds: from the SSE (160 degrees) at 10 MPH (9 knots; 4.6 m/s)
Visibility: 6 or more miles (10+ km)
Ceiling: 4900 feet AGL
Clouds: broken clouds at 4900 feet AGL
Weather: no significant weather observed at this time

METAR text: LETL 180930Z AUTO 18006KT 130V220 CAVOK 11/03 Q1014
Conditions at: LETL (TERUEL , ES) observed 0930 UTC 18 April 2019
Temperature: 11.0°C (52°F)
Dewpoint: 3.0°C (37°F) [RH = 58%]
Pressure (altimeter): 29.94 inches Hg (1014.0 mb)
Winds: from the S (180 degrees) at 7 MPH (6 knots; 3.1 m/s)
Visibility: 6 or more miles (10+ km)
Ceiling: ceiling and visibility are OK
Clouds: unknown
Weather: no significant weather observed at this time

METAR text: LETL 180900Z AUTO 24003KT 190V320 CAVOK 11/04 Q1014
Conditions at: LETL (TERUEL , ES) observed 0900 UTC 18 April 2019
Temperature: 11.0°C (52°F)
Dewpoint: 4.0°C (39°F) [RH = 62%]
Pressure (altimeter): 29.94 inches Hg (1014.0 mb)
Winds: from the WSW (240 degrees) at 3 MPH (3 knots; 1.5 m/s)
Visibility: 6 or more miles (10+ km)
Ceiling: ceiling and visibility are OK
Clouds: unknown
Weather: no significant weather observed at this time

METAR text: LETL 180830Z AUTO VRB02KT CAVOK 10/04 Q1014
Conditions at: LETL (TERUEL , ES) observed 0830 UTC 18 April 2019
Temperature: 10.0°C (50°F)
Dewpoint: 4.0°C (39°F) [RH = 66%]
Pressure (altimeter): 29.94 inches Hg (1014.0 mb)
Winds: variable direction winds at 2 MPH (2 knots; 1.0 m/s)
Visibility: 6 or more miles (10+ km)
Ceiling: ceiling and visibility are OK
Clouds: unknown
Weather: no significant weather observed at this time

METAR text: LETL 180800Z AUTO 33004KT CAVOK 10/04 Q1014
Conditions at: LETL (TERUEL , ES) observed 0800 UTC 18 April 2019
Temperature: 10.0°C (50°F)
Dewpoint: 4.0°C (39°F) [RH = 66%]
Pressure (altimeter): 29.94 inches Hg (1014.0 mb)
Winds: from the NNW (330 degrees) at 5 MPH (4 knots; 2.1 m/s)
Visibility: 6 or more miles (10+ km)
Ceiling: ceiling and visibility are OK
Clouds: unknown
Weather: no significant weather observed at this time

METAR text: LETL 180730Z AUTO 32004KT 300V010 CAVOK 09/05 Q1014
Conditions at: LETL (TERUEL , ES) observed 0730 UTC 18 April 2019
Temperature: 9.0°C (48°F)
Dewpoint: 5.0°C (41°F) [RH = 76%]
Pressure (altimeter): 29.94 inches Hg (1014.0 mb)
Winds: from the NW (320 degrees) at 5 MPH (4 knots; 2.1 m/s)
Visibility: 6 or more miles (10+ km)
Ceiling: ceiling and visibility are OK
Clouds: unknown
Weather: no significant weather observed at this time